createdAt,value
2022-11-29T00:00:25.797Z,8.10
2022-11-29T00:02:53.447Z,8.00
2022-11-29T00:05:26.770Z,8.00
2022-11-29T00:07:53.676Z,8.00
2022-11-29T00:10:26.856Z,8.00
2022-11-29T00:12:54.926Z,8.00
2022-11-29T00:15:21.724Z,8.00
2022-11-29T00:17:54.844Z,8.00
2022-11-29T00:20:22.961Z,8.00
2022-11-29T00:22:56.909Z,8.10
2022-11-29T00:25:23.944Z,8.00
2022-11-29T00:27:57.858Z,8.10
2022-11-29T00:30:24.826Z,8.10
2022-11-29T00:32:57.885Z,8.10
2022-11-29T00:35:24.739Z,8.00
2022-11-29T00:37:51.514Z,8.10
2022-11-29T00:40:25.044Z,8.10
2022-11-29T00:42:58.857Z,8.10
2022-11-29T00:45:25.759Z,8.10
2022-11-29T00:47:58.908Z,8.10
2022-11-29T00:50:25.820Z,8.10
2022-11-29T00:52:59.111Z,8.10
2022-11-29T00:55:25.999Z,8.10
2022-11-29T00:57:58.892Z,8.10
2022-11-29T01:00:25.819Z,8.10
2022-11-29T01:02:52.763Z,8.20
2022-11-29T01:05:25.879Z,8.10
2022-11-29T01:08:02.783Z,8.10
2022-11-29T01:10:35.898Z,8.10
2022-11-29T01:13:02.799Z,8.10
2022-11-29T01:15:35.982Z,8.10
2022-11-29T01:18:02.891Z,8.10
2022-11-29T01:20:35.992Z,8.00
2022-11-29T01:23:02.800Z,8.00
2022-11-29T01:25:35.868Z,8.00
2022-11-29T01:28:02.741Z,8.00
2022-11-29T01:30:35.941Z,8.10
2022-11-29T01:33:02.691Z,8.10
2022-11-29T01:35:35.916Z,8.10
2022-11-29T01:38:02.894Z,8.10
2022-11-29T01:40:35.959Z,8.10
2022-11-29T01:43:02.761Z,8.20
2022-11-29T01:45:44.013Z,8.20
2022-11-29T01:48:14.030Z,8.20
2022-11-29T01:50:42.637Z,8.20
2022-11-29T01:53:18.949Z,8.20
2022-11-29T01:55:59.037Z,8.20
2022-11-29T01:58:26.247Z,8.20
2022-11-29T02:00:59.991Z,8.10
2022-11-29T02:03:27.174Z,8.10
2022-11-29T02:05:55.549Z,8.10
2022-11-29T02:08:36.067Z,8.10
2022-11-29T02:11:37.972Z,8.00
2022-11-29T02:14:52.048Z,8.00
2022-11-29T02:17:50.947Z,8.00
2022-11-29T02:20:36.418Z,8.00
2022-11-29T02:23:25.073Z,7.90
2022-11-29T02:25:57.659Z,7.90
2022-11-29T02:28:54.995Z,7.90
2022-11-29T02:32:02.187Z,7.90
2022-11-29T02:35:00.002Z,7.90
2022-11-29T02:37:55.101Z,7.90
2022-11-29T02:40:50.218Z,8.00
2022-11-29T02:43:51.050Z,8.00
2022-11-29T02:46:27.755Z,8.10
2022-11-29T02:49:33.047Z,8.10
2022-11-29T02:52:06.990Z,8.10
2022-11-29T02:55:06.035Z,8.00
2022-11-29T02:58:03.239Z,8.00
2022-11-29T03:00:39.070Z,8.00
2022-11-29T03:03:19.250Z,8.00
2022-11-29T03:06:20.079Z,8.00
2022-11-29T03:08:59.289Z,8.00
2022-11-29T03:11:51.124Z,7.90
2022-11-29T03:14:33.070Z,7.80
2022-11-29T03:17:21.519Z,7.80
2022-11-29T03:20:04.162Z,7.80
2022-11-29T03:22:39.102Z,7.80
2022-11-29T03:25:15.110Z,7.90
2022-11-29T03:27:50.749Z,7.90
2022-11-29T03:30:25.160Z,7.90
2022-11-29T03:33:17.017Z,7.90
2022-11-29T03:35:58.069Z,7.80
2022-11-29T03:38:52.726Z,7.70
2022-11-29T03:41:35.164Z,7.70
2022-11-29T03:44:32.204Z,7.70
2022-11-29T03:47:05.614Z,7.70
2022-11-29T03:49:56.172Z,7.70
2022-11-29T03:52:56.166Z,7.70
2022-11-29T03:55:39.180Z,7.70
2022-11-29T03:58:14.781Z,7.70
2022-11-29T04:00:54.331Z,7.70
2022-11-29T04:03:32.190Z,7.70
2022-11-29T04:06:36.233Z,7.70
2022-11-29T04:09:09.124Z,7.70
2022-11-29T04:12:20.480Z,7.80
2022-11-29T04:15:15.751Z,7.80
2022-11-29T04:18:14.179Z,7.70
2022-11-29T04:20:59.578Z,7.80
2022-11-29T04:23:36.169Z,7.80
2022-11-29T04:26:35.083Z,7.80
2022-11-29T04:29:33.286Z,7.70
2022-11-29T04:32:20.442Z,7.70
2022-11-29T04:35:15.193Z,7.60
2022-11-29T04:38:15.310Z,7.60
2022-11-29T04:41:07.234Z,7.60
2022-11-29T04:43:39.866Z,7.60
2022-11-29T04:46:38.305Z,7.50
2022-11-29T04:49:29.394Z,7.50
2022-11-29T04:52:27.262Z,7.50
2022-11-29T04:55:36.578Z,7.50
2022-11-29T04:58:23.308Z,7.50
2022-11-29T05:01:06.904Z,7.50
2022-11-29T05:04:09.307Z,7.50
2022-11-29T05:06:50.689Z,7.50
2022-11-29T05:09:56.320Z,7.50
2022-11-29T05:13:06.283Z,7.50
2022-11-29T05:16:05.017Z,7.50
2022-11-29T05:19:15.283Z,7.40
2022-11-29T05:22:24.368Z,7.40
2022-11-29T05:25:23.310Z,7.40
2022-11-29T05:28:10.250Z,7.50
2022-11-29T05:31:04.306Z,7.50
2022-11-29T05:33:52.325Z,7.50
2022-11-29T05:36:56.256Z,7.40
2022-11-29T05:39:55.439Z,7.40
2022-11-29T05:43:03.957Z,7.40
2022-11-29T05:45:44.282Z,7.40
2022-11-29T05:48:52.325Z,7.40
2022-11-29T05:51:41.239Z,7.40
2022-11-29T05:54:36.342Z,7.40
2022-11-29T05:57:38.481Z,7.40
2022-11-29T06:00:13.350Z,7.40
2022-11-29T06:02:46.665Z,7.40
2022-11-29T06:05:30.374Z,7.40
2022-11-29T06:08:16.316Z,7.40
2022-11-29T06:11:22.330Z,7.40
2022-11-29T06:14:05.513Z,7.40
2022-11-29T06:17:03.483Z,7.40
2022-11-29T06:20:16.409Z,7.40
2022-11-29T06:23:24.222Z,7.40
2022-11-29T06:26:15.379Z,7.40
2022-11-29T06:29:27.594Z,7.40
2022-11-29T06:32:27.469Z,7.40
2022-11-29T06:35:09.486Z,7.40
2022-11-29T06:37:51.412Z,7.40
2022-11-29T06:40:18.309Z,7.40
2022-11-29T06:42:55.425Z,7.40
2022-11-29T06:45:22.691Z,7.40
2022-11-29T06:48:11.403Z,7.40
2022-11-29T06:51:06.443Z,7.40
2022-11-29T06:53:50.442Z,7.40
2022-11-29T06:56:17.219Z,7.30
2022-11-29T06:59:32.436Z,7.30
2022-11-29T07:02:19.692Z,7.20
2022-11-29T07:05:19.455Z,7.20
2022-11-29T07:07:53.457Z,7.20
2022-11-29T07:10:27.621Z,7.10
2022-11-29T07:13:01.455Z,7.10
2022-11-29T07:15:28.896Z,7.10
2022-11-29T07:18:11.489Z,7.10
2022-11-29T07:20:53.847Z,7.10
2022-11-29T07:24:18.500Z,7.10
2022-11-29T07:26:59.740Z,7.10
2022-11-29T07:29:42.486Z,7.10
2022-11-29T07:32:24.488Z,7.10
2022-11-29T07:35:03.504Z,7.10
2022-11-29T07:37:46.485Z,7.10
2022-11-29T07:40:23.858Z,7.20
2022-11-29T07:43:27.498Z,7.20
2022-11-29T07:45:55.868Z,7.20
2022-11-29T07:48:29.485Z,7.20
2022-11-29T07:51:03.528Z,7.20
2022-11-29T07:53:37.515Z,7.20
2022-11-29T07:56:04.587Z,7.20
2022-11-29T07:58:37.562Z,7.20
2022-11-29T08:01:04.448Z,7.20
2022-11-29T08:03:39.568Z,7.20
2022-11-29T08:06:06.551Z,7.30
2022-11-29T08:08:43.975Z,7.30
2022-11-29T08:11:19.523Z,7.30
2022-11-29T08:13:46.381Z,7.30
2022-11-29T08:16:24.649Z,7.20
2022-11-29T08:18:54.064Z,7.30
2022-11-29T08:21:27.543Z,7.30
2022-11-29T08:24:00.554Z,7.30
2022-11-29T08:26:31.676Z,7.40
2022-11-29T08:28:59.023Z,7.50
2022-11-29T08:31:32.650Z,7.50
2022-11-29T08:33:59.518Z,7.50
2022-11-29T08:36:32.616Z,7.50
2022-11-29T08:39:08.661Z,7.50
2022-11-29T08:41:42.572Z,7.50
2022-11-29T08:44:15.609Z,7.60
2022-11-29T08:47:01.060Z,7.60
2022-11-29T08:49:34.651Z,7.60
2022-11-29T08:52:26.619Z,7.60
2022-11-29T08:54:55.624Z,7.60
2022-11-29T08:57:39.935Z,7.50
2022-11-29T09:00:14.618Z,7.60
2022-11-29T09:02:41.640Z,7.70
2022-11-29T09:05:15.668Z,7.70
2022-11-29T09:07:55.701Z,7.80
2022-11-29T09:10:28.958Z,7.90
2022-11-29T09:13:02.658Z,7.90
2022-11-29T09:15:35.677Z,8.00
2022-11-29T09:18:04.315Z,8.00
2022-11-29T09:20:37.728Z,8.00
2022-11-29T09:23:05.020Z,7.90
2022-11-29T09:25:38.697Z,7.90
2022-11-29T09:28:05.791Z,7.90
2022-11-29T09:30:40.687Z,8.00
2022-11-29T09:33:07.482Z,8.00
2022-11-29T09:35:41.769Z,8.10
2022-11-29T09:38:12.001Z,8.00
2022-11-29T09:40:59.695Z,8.00
2022-11-29T09:43:35.711Z,8.00
2022-11-29T09:46:23.229Z,8.00
2022-11-29T09:49:28.726Z,8.10
2022-11-29T09:52:08.731Z,8.10
2022-11-29T09:55:02.828Z,8.10
2022-11-29T09:57:37.716Z,8.20
2022-11-29T10:00:14.007Z,8.20
2022-11-29T10:02:53.792Z,8.20
2022-11-29T10:05:51.886Z,8.10
2022-11-29T10:08:48.769Z,8.10
2022-11-29T10:11:43.616Z,8.10
2022-11-29T10:14:27.848Z,8.30
2022-11-29T10:17:04.815Z,8.20
2022-11-29T10:19:47.793Z,8.20
2022-11-29T10:22:22.477Z,8.30
2022-11-29T10:25:01.839Z,8.30
2022-11-29T10:27:36.814Z,8.30
2022-11-29T10:30:12.877Z,8.30
2022-11-29T10:32:41.054Z,8.40
2022-11-29T10:35:25.794Z,8.40
2022-11-29T10:40:56.092Z,8.40
2022-11-29T10:43:31.762Z,8.40
2022-11-29T10:45:59.060Z,8.40
2022-11-29T10:48:31.721Z,8.30
2022-11-29T10:51:05.819Z,8.30
2022-11-29T10:53:37.064Z,8.30
2022-11-29T10:56:30.808Z,8.30
2022-11-29T10:59:05.094Z,8.30
2022-11-29T11:01:43.831Z,8.50
2022-11-29T11:04:26.823Z,8.60
2022-11-29T11:07:02.833Z,8.80
2022-11-29T11:09:53.297Z,8.90
2022-11-29T11:12:29.862Z,9.00
2022-11-29T11:15:29.853Z,9.10
2022-11-29T11:18:11.794Z,9.10
2022-11-29T11:20:42.300Z,9.10
2022-11-29T11:23:38.700Z,9.20
2022-11-29T11:26:15.215Z,9.20
2022-11-29T11:28:56.851Z,9.20
2022-11-29T11:31:42.894Z,9.20
2022-11-29T11:34:29.924Z,9.20
2022-11-29T11:37:21.900Z,9.10
2022-11-29T11:39:51.833Z,9.00
2022-11-29T11:42:45.884Z,8.90
2022-11-29T11:45:13.223Z,8.80
2022-11-29T11:47:52.875Z,8.90
2022-11-29T11:50:32.727Z,8.90
2022-11-29T11:53:13.904Z,8.90
2022-11-29T11:55:43.875Z,8.90
2022-11-29T11:58:20.973Z,8.90
2022-11-29T12:01:08.647Z,8.90
2022-11-29T12:04:20.894Z,8.90
2022-11-29T12:07:06.932Z,8.90
2022-11-29T12:09:44.965Z,8.90
2022-11-29T12:12:28.002Z,8.80
2022-11-29T12:15:05.931Z,8.70
2022-11-29T12:18:04.319Z,8.70
2022-11-29T12:21:01.923Z,8.80
2022-11-29T12:23:49.243Z,8.90
2022-11-29T12:27:03.412Z,9.00
2022-11-29T12:29:41.947Z,9.10
2022-11-29T12:32:22.146Z,9.00
2022-11-29T12:35:00.960Z,9.00
2022-11-29T12:37:42.750Z,9.00
2022-11-29T12:40:43.006Z,9.10
2022-11-29T12:43:31.948Z,9.20
2022-11-29T12:46:23.011Z,9.40
2022-11-29T12:49:14.670Z,9.40
2022-11-29T12:51:50.977Z,9.30
2022-11-29T12:55:06.935Z,9.10
2022-11-29T12:57:51.859Z,9.00
2022-11-29T13:00:27.036Z,9.10
2022-11-29T13:03:11.666Z,9.10
2022-11-29T13:06:09.008Z,9.20
2022-11-29T13:09:01.012Z,9.20
2022-11-29T13:11:28.441Z,9.20
2022-11-29T13:14:44.023Z,9.30
2022-11-29T13:17:46.172Z,9.30
2022-11-29T13:20:50.670Z,9.30
2022-11-29T13:23:45.707Z,9.40
2022-11-29T13:26:16.583Z,9.40
2022-11-29T13:28:53.068Z,9.40
2022-11-29T13:31:22.901Z,9.40
2022-11-29T13:34:26.046Z,9.30
2022-11-29T13:37:21.092Z,9.30
2022-11-29T13:40:13.036Z,9.20
2022-11-29T13:43:04.178Z,9.30
2022-11-29T13:46:12.100Z,9.30
2022-11-29T13:48:50.480Z,9.30
2022-11-29T13:51:35.085Z,9.20
2022-11-29T13:54:26.457Z,9.20
2022-11-29T13:57:13.268Z,9.20
2022-11-29T13:59:47.146Z,9.20
2022-11-29T14:02:35.153Z,9.20
2022-11-29T14:05:02.221Z,9.20
2022-11-29T14:07:36.209Z,9.20
2022-11-29T14:10:09.615Z,9.30
2022-11-29T14:12:47.111Z,9.30
2022-11-29T14:15:36.421Z,9.30
2022-11-29T14:18:15.197Z,9.20
2022-11-29T14:20:53.919Z,9.20
2022-11-29T14:23:56.150Z,9.10
2022-11-29T14:26:33.178Z,9.10
2022-11-29T14:29:00.223Z,9.10
2022-11-29T14:32:00.114Z,9.10
2022-11-29T14:34:32.915Z,9.10
2022-11-29T14:37:21.139Z,9.10
2022-11-29T14:39:59.169Z,9.00
2022-11-29T14:42:28.004Z,8.90
2022-11-29T14:45:11.153Z,8.90
2022-11-29T14:47:47.906Z,8.90
2022-11-29T14:50:39.222Z,8.90
2022-11-29T14:53:26.944Z,8.80
2022-11-29T14:56:35.181Z,8.80
2022-11-29T14:59:39.625Z,8.80
2022-11-29T15:02:46.281Z,8.70
2022-11-29T15:05:28.287Z,8.60
2022-11-29T15:08:28.099Z,8.60
2022-11-29T15:11:20.280Z,8.60
2022-11-29T15:14:02.542Z,8.60
2022-11-29T15:16:52.455Z,8.60
2022-11-29T15:19:45.036Z,8.60
2022-11-29T15:22:34.180Z,8.50
2022-11-29T15:25:05.163Z,8.50
2022-11-29T15:27:40.407Z,8.40
2022-11-29T15:30:47.198Z,8.40
2022-11-29T15:33:32.325Z,8.40
2022-11-29T15:36:12.587Z,8.30
2022-11-29T15:39:12.310Z,8.30
2022-11-29T15:41:41.710Z,8.30
2022-11-29T15:44:29.249Z,8.30
2022-11-29T15:47:02.275Z,8.20
2022-11-29T15:49:30.551Z,8.20
2022-11-29T15:52:20.236Z,8.10
2022-11-29T15:54:52.001Z,8.10
2022-11-29T15:57:46.281Z,8.10
2022-11-29T16:00:23.063Z,8.10
2022-11-29T16:03:11.307Z,8.10
2022-11-29T16:05:46.326Z,8.10
2022-11-29T16:08:21.020Z,8.10
2022-11-29T16:10:59.306Z,8.00
2022-11-29T16:13:40.329Z,8.10
2022-11-29T16:16:20.059Z,8.00
2022-11-29T16:18:55.413Z,8.00
2022-11-29T16:21:28.911Z,8.00
2022-11-29T16:24:03.296Z,8.00
2022-11-29T16:26:36.990Z,8.00
2022-11-29T16:29:11.322Z,7.90
2022-11-29T16:31:38.542Z,7.90
2022-11-29T16:34:21.295Z,7.80
2022-11-29T16:37:01.029Z,7.90
2022-11-29T16:39:35.359Z,7.80
2022-11-29T16:42:15.968Z,7.80
2022-11-29T16:44:51.330Z,7.80
2022-11-29T16:47:20.632Z,7.80
2022-11-29T16:50:18.373Z,7.80
2022-11-29T16:52:46.132Z,7.80
2022-11-29T16:55:19.407Z,7.80
2022-11-29T16:57:47.677Z,7.80
2022-11-29T17:00:24.541Z,7.70
2022-11-29T17:02:51.948Z,7.70
2022-11-29T17:05:25.442Z,7.70
2022-11-29T17:07:59.404Z,7.70
2022-11-29T17:10:33.572Z,7.60
2022-11-29T17:13:01.662Z,7.50
2022-11-29T17:15:28.490Z,7.50
2022-11-29T17:18:02.433Z,7.40
2022-11-29T17:20:29.210Z,7.40
2022-11-29T17:23:08.528Z,7.40
2022-11-29T17:25:35.341Z,7.30
2022-11-29T17:28:02.915Z,7.30
2022-11-29T17:30:36.652Z,7.30
2022-11-29T17:33:09.963Z,7.30
2022-11-29T17:35:43.457Z,7.30
2022-11-29T17:38:16.565Z,7.20
2022-11-29T17:40:43.294Z,7.20
2022-11-29T17:43:10.011Z,7.20
2022-11-29T17:45:45.504Z,7.10
2022-11-29T17:48:18.409Z,7.10
2022-11-29T17:50:51.469Z,7.10
2022-11-29T17:53:24.611Z,7.00
2022-11-29T17:55:51.685Z,7.00
2022-11-29T17:58:18.550Z,6.90
2022-11-29T18:00:51.447Z,6.90
2022-11-29T18:03:18.282Z,6.90
2022-11-29T18:05:51.515Z,6.80
2022-11-29T18:08:18.390Z,6.80
2022-11-29T18:10:45.135Z,6.80
2022-11-29T18:13:18.493Z,6.70
2022-11-29T18:15:51.488Z,6.70
2022-11-29T18:18:18.307Z,6.70
2022-11-29T18:20:51.468Z,6.60
2022-11-29T18:23:18.283Z,6.70
2022-11-29T18:26:05.542Z,6.60
2022-11-29T18:28:36.665Z,6.60
2022-11-29T18:31:18.616Z,6.70
2022-11-29T18:33:48.277Z,6.70
2022-11-29T18:36:27.521Z,6.80
2022-11-29T18:38:56.920Z,6.70
2022-11-29T18:41:31.581Z,6.70
2022-11-29T18:44:02.276Z,6.70
2022-11-29T18:46:39.517Z,6.70
2022-11-29T18:49:08.489Z,6.70
2022-11-29T18:51:36.941Z,6.80
2022-11-29T18:54:11.600Z,6.80
2022-11-29T18:56:38.942Z,6.90
2022-11-29T18:59:16.597Z,6.90
2022-11-29T19:01:51.609Z,7.00
2022-11-29T19:04:20.733Z,6.90
2022-11-29T19:06:54.570Z,6.90
2022-11-29T19:09:22.263Z,6.90
2022-11-29T19:11:56.597Z,6.90
2022-11-29T19:14:23.671Z,6.90
2022-11-29T19:16:57.618Z,7.00
2022-11-29T19:19:24.553Z,7.10
2022-11-29T19:21:59.689Z,7.10
2022-11-29T19:24:26.501Z,7.10
2022-11-29T19:26:55.807Z,7.00
2022-11-29T19:29:29.646Z,7.00
2022-11-29T19:32:03.746Z,7.00
2022-11-29T19:34:30.791Z,6.90
2022-11-29T19:36:57.601Z,7.00
2022-11-29T19:39:30.622Z,7.00
2022-11-29T19:41:59.486Z,7.00
2022-11-29T19:44:48.239Z,7.10
2022-11-29T19:47:19.597Z,7.00
2022-11-29T19:49:53.139Z,7.00
2022-11-29T19:52:21.379Z,7.00
2022-11-29T19:54:48.173Z,6.90
2022-11-29T19:57:21.636Z,6.90
2022-11-29T19:59:48.530Z,6.90
2022-11-29T20:02:22.720Z,6.80
2022-11-29T20:04:56.702Z,6.80
2022-11-29T20:07:30.251Z,6.80
2022-11-29T20:10:03.813Z,6.80
2022-11-29T20:12:32.857Z,6.80
2022-11-29T20:15:01.034Z,6.80
2022-11-29T20:17:34.802Z,6.80
2022-11-29T20:20:01.760Z,6.80
2022-11-29T20:22:33.808Z,6.80
2022-11-29T20:25:07.694Z,6.70
2022-11-29T20:27:45.715Z,6.60
2022-11-29T20:30:13.351Z,6.50
2022-11-29T20:32:46.829Z,6.50
2022-11-29T20:35:13.968Z,6.50
2022-11-29T20:38:26.786Z,6.50
2022-11-29T20:41:04.978Z,6.50
2022-11-29T20:43:58.846Z,6.40
2022-11-29T20:46:26.451Z,6.40
2022-11-29T20:48:53.988Z,6.40
2022-11-29T20:51:37.859Z,6.50
2022-11-29T20:54:04.933Z,6.50
2022-11-29T20:56:44.737Z,6.50
2022-11-29T20:59:11.611Z,6.50
2022-11-29T21:01:38.469Z,6.50
2022-11-29T21:04:14.557Z,6.60
2022-11-29T21:06:43.722Z,6.50
2022-11-29T21:09:10.874Z,6.50
2022-11-29T21:11:44.878Z,6.50
2022-11-29T21:14:12.052Z,6.40
2022-11-29T21:16:39.077Z,6.50
2022-11-29T21:19:12.908Z,6.50
2022-11-29T21:21:52.141Z,6.50
2022-11-29T21:24:52.951Z,6.50
2022-11-29T21:27:34.350Z,6.50
2022-11-29T21:30:11.789Z,6.40
2022-11-29T21:32:38.962Z,6.40
2022-11-29T21:35:12.849Z,6.40
2022-11-29T21:37:40.993Z,6.50
2022-11-29T21:40:09.632Z,6.50
2022-11-29T21:42:43.772Z,6.50
2022-11-29T21:45:17.833Z,6.60
2022-11-29T21:48:35.807Z,6.60
2022-11-29T21:51:12.802Z,6.70
2022-11-29T21:53:40.566Z,6.60
2022-11-29T21:56:21.828Z,6.70
2022-11-29T21:58:48.723Z,6.70
2022-11-29T22:01:24.883Z,6.70
2022-11-29T22:03:53.891Z,6.70
2022-11-29T22:06:30.852Z,6.70
2022-11-29T22:08:57.707Z,6.70
2022-11-29T22:11:36.846Z,6.70
2022-11-29T22:14:15.234Z,6.70
2022-11-29T22:16:57.002Z,6.70
2022-11-29T22:19:29.305Z,6.70
2022-11-29T22:22:08.887Z,6.70
2022-11-29T22:24:36.873Z,6.60
2022-11-29T22:27:18.900Z,6.70
2022-11-29T22:29:45.830Z,6.70
2022-11-29T22:32:12.645Z,6.70
2022-11-29T22:34:46.275Z,6.80
2022-11-29T22:37:15.101Z,6.80
2022-11-29T22:39:41.880Z,6.90
2022-11-29T22:42:14.919Z,6.90
2022-11-29T22:44:48.327Z,6.90
2022-11-29T22:47:15.307Z,6.90
2022-11-29T22:49:44.423Z,6.90
2022-11-29T22:52:17.885Z,6.90
2022-11-29T22:54:50.917Z,6.90
2022-11-29T22:57:22.239Z,7.00
2022-11-29T22:59:55.919Z,7.00
2022-11-29T23:02:22.733Z,7.10
2022-11-29T23:04:58.025Z,7.10
2022-11-29T23:07:32.031Z,7.20
2022-11-29T23:10:05.943Z,7.20
2022-11-29T23:12:32.730Z,7.20
2022-11-29T23:15:08.980Z,7.20
2022-11-29T23:17:35.965Z,7.20
2022-11-29T23:20:02.734Z,7.20
2022-11-29T23:22:37.929Z,7.20
2022-11-29T23:25:06.302Z,7.30
2022-11-29T23:27:45.965Z,7.30
2022-11-29T23:30:19.974Z,7.30
2022-11-29T23:32:52.952Z,7.30
2022-11-29T23:35:26.985Z,7.30
2022-11-29T23:38:05.973Z,7.30
2022-11-29T23:40:33.634Z,7.30
2022-11-29T23:43:07.127Z,7.30
2022-11-29T23:45:43.026Z,7.30
2022-11-29T23:48:09.917Z,7.30
2022-11-29T23:50:42.971Z,7.40
2022-11-29T23:53:12.946Z,7.40
2022-11-29T23:55:46.057Z,7.40
2022-11-29T23:58:13.030Z,7.40
